Valentine, NE

3:52 PM CST on December 09, 2019 (GMT -0600)
Miller Field

Weather History for KVTN - October, 2019

Change the Weather History Date:

Wednesday, October 2, 2019

  Actual Average Record
Temperature  
Mean Temperature 42 °F 54 °F  
Max Temperature 48 °F 69 °F 94 °F (1997)
Min Temperature 35 °F 39 °F 17 °F (1999)
Degree Days  
Heating Degree Days 24 11  
Month to date heating degree days 42 22  
Since 1 July heating degree days 95 207  
Cooling Degree Days 0 0  
Month to date cooling degree days 0 1  
Year to date cooling degree days 930 818  
Moisture  
Dew Point 40 °F    
Average Humidity 85    
Maximum Humidity 92    
Minimum Humidity 76    
Precipitation  
Precipitation 0.19 in 0.06 in 1.14 in (1891)
Month to date precipitation 0.37 0.12  
Year to date precipitation 27.27 17.87  
Snow  
Snow 0.00 in 0.00 in T in (1959)
Month to date snowfall 0.0 0.0  
Since 1 July snowfall 0.0 0.7  
Since 1 September snowfall 0.0 0.7  
Snow Depth 0.00 in    
Sea Level Pressure  
Sea Level Pressure 30.10 in    
Wind  
Wind Speed 8 mph ()    
Max Wind Speed 16 mph    
Max Gust Speed 21 mph    
Visibility 5.4 miles    
Events Rain , Thunderstorm    
T = Trace of Precipitation, MM = Missing Value Source: Averaged Metar Reports

Daily Weather History Graph

Daily Weather History Graph

Search for Another Location

Airport or City:

Astronomy

Oct. 02, 2019 Rise Set
Actual Time 7:40 AM CDT 7:22 PM CDT
Civil Twilight 7:12 AM CDT 7:50 PM CDT
Nautical Twilight 6:39 AM CDT 8:22 PM CDT
Astronomical Twilight 6:06 AM CDT 8:56 PM CDT
Moon 12:13 PM CDT (10/2) 10:10 PM CDT (10/2)
Length of Visible Light 12h 38m
Length of Day
11h 41m
Waxing Crescent, 20% of the Moon is Illuminated
Oct 2
Waxing Crescent
Oct 5
First Quarter
Oct 13
Full
Oct 21
Last Quarter
Oct 27
New

Hourly Weather History & Observations

Time (CDT) Temp. Windchill Dew Point Humidity Pressure Visibility Wind Dir Wind Speed Gust Speed Precip Events Conditions
12:18 AM 45.0 °F 40.1 °F 41.0 °F 86% 30.10 in 9.0 mi NNE 9.2 mph 20.7 mph N/A   Overcast
12:31 AM 45.0 °F 40.1 °F 41.0 °F 86% 30.10 in 10.0 mi NNE 9.2 mph - N/A   Overcast
12:52 AM 44.1 °F 38.1 °F 39.9 °F 85% 30.14 in 10.0 mi NNE 11.5 mph - N/A   Overcast
1:43 AM 44.1 °F 37.7 °F 39.9 °F 85% 30.07 in 2.0 mi NNE 12.7 mph - N/A   Overcast
1:52 AM 44.1 °F 37.4 °F 39.9 °F 85% 30.12 in 1.8 mi NE 13.8 mph - 0.00 in Rain Light Rain
2:07 AM 44.1 °F 39.0 °F 41.0 °F 89% 30.08 in 2.0 mi NE 9.2 mph - 0.00 in Rain Light Rain
2:28 AM 44.1 °F 38.1 °F 39.9 °F 85% 30.07 in 6.0 mi NE 11.5 mph - 0.01 in   Overcast
2:52 AM 44.1 °F 38.6 °F 39.9 °F 85% 30.12 in 8.0 mi NE 10.4 mph - 0.01 in   Overcast
3:20 AM 43.0 °F 35.7 °F 39.9 °F 89% 30.08 in 2.5 mi NE 15.0 mph - N/A Thunderstorm Overcast
3:38 AM 43.0 °F 38.2 °F 39.0 °F 86% 30.07 in 4.0 mi NNE 8.1 mph - 0.01 in Rain , Thunderstorm Light Rain
3:45 AM 43.0 °F 37.7 °F 39.0 °F 86% 30.08 in 6.0 mi North 9.2 mph - 0.01 in Rain Light Rain
3:52 AM 43.0 °F 39.5 °F 39.0 °F 86% 30.14 in 4.0 mi NNW 5.8 mph - 0.03 in Rain Rain
4:23 AM 42.1 °F 38.4 °F 39.0 °F 89% 30.09 in 7.0 mi North 5.8 mph - 0.08 in Rain Light Rain
4:52 AM 43.0 °F 37.2 °F 39.0 °F 86% 30.11 in 10.0 mi NNE 10.4 mph - 0.09 in   Overcast
5:08 AM 43.0 °F 37.7 °F 39.0 °F 86% 30.06 in 10.0 mi NNE 9.2 mph - N/A   Overcast
5:39 AM 43.0 °F 39.5 °F 39.0 °F 86% 30.08 in 10.0 mi NNE 5.8 mph - 0.00 in Rain Light Rain
5:52 AM 43.0 °F 37.7 °F 39.0 °F 86% 30.10 in 10.0 mi North 9.2 mph - 0.00 in Rain Light Rain
6:52 AM 42.1 °F 35.7 °F 39.0 °F 89% 30.12 in 4.0 mi NNE 11.5 mph - 0.01 in Rain Light Rain
7:52 AM 42.1 °F 36.1 °F 39.0 °F 89% 30.11 in 3.0 mi NE 10.4 mph - 0.01 in   Overcast
8:49 AM 41.0 °F 34.7 °F 37.4 °F 87% 30.08 in 2.5 mi NNE 10.4 mph - N/A   Overcast
8:52 AM 41.0 °F 34.7 °F 37.9 °F 89% 30.12 in 2.0 mi NE 10.4 mph - N/A   Overcast
9:01 AM 41.0 °F 35.2 °F 37.9 °F 89% 30.09 in 1.5 mi NNE 9.2 mph - N/A   Overcast
9:52 AM 42.1 °F 36.6 °F 37.9 °F 85% 30.13 in 1.2 mi NNE 9.2 mph - 0.02 in Rain Light Rain
10:21 AM 43.0 °F 37.7 °F 39.0 °F 86% 30.07 in 2.0 mi NE 9.2 mph - 0.01 in Rain Light Rain
10:31 AM 43.0 °F 37.7 °F 39.0 °F 86% 30.07 in 2.0 mi NE 9.2 mph - 0.01 in   Overcast
10:44 AM 43.0 °F 37.7 °F 39.0 °F 86% 30.08 in 4.0 mi NE 9.2 mph - 0.01 in   Overcast
10:52 AM 43.0 °F 39.5 °F 39.0 °F 86% 30.12 in 3.0 mi NNE 5.8 mph - 0.01 in   Overcast
10:57 AM 43.0 °F 37.7 °F 39.0 °F 86% 30.08 in 2.0 mi NNE 9.2 mph - N/A   Overcast
11:02 AM 43.0 °F 38.2 °F 39.0 °F 86% 30.08 in 1.8 mi NNE 8.1 mph - N/A   Overcast
11:09 AM 43.0 °F 38.8 °F 39.0 °F 86% 30.08 in 1.5 mi NNE 6.9 mph - N/A   Overcast
11:38 AM 43.0 °F 38.2 °F 39.9 °F 89% 30.08 in 1.0 mi NE 8.1 mph - N/A   Overcast
11:47 AM 42.8 °F 38.0 °F 39.2 °F 87% 30.08 in 1.2 mi NE 8.1 mph - N/A   Overcast
11:48 AM 43.0 °F 38.8 °F 39.0 °F 86% 30.12 in 1.2 mi NNE 6.9 mph - N/A   Overcast
11:59 AM 43.0 °F 39.5 °F 39.0 °F 86% 30.08 in 1.8 mi NNE 5.8 mph - N/A   Overcast
12:22 PM 43.0 °F 38.8 °F 39.0 °F 86% 30.08 in 2.0 mi NNE 6.9 mph - N/A   Overcast
12:32 PM 43.0 °F 38.8 °F 39.9 °F 89% 30.08 in 1.8 mi North 6.9 mph - N/A   Overcast
12:52 PM 44.1 °F 40.8 °F 39.9 °F 85% 30.11 in 1.2 mi NNE 5.8 mph - N/A   Overcast
1:10 PM 44.6 °F 40.7 °F 41.0 °F 87% 30.07 in 3.0 mi North 6.9 mph - N/A   Overcast
1:17 PM 45.0 °F 42.6 °F 39.9 °F 82% 30.07 in 2.5 mi North 4.6 mph - 0.01 in   Haze
1:25 PM 45.0 °F 41.2 °F 39.9 °F 82% 30.07 in 2.0 mi North 6.9 mph - 0.01 in   Haze
1:32 PM 45.0 °F 42.6 °F 39.9 °F 82% 30.08 in 2.5 mi North 4.6 mph - 0.01 in   Haze
1:35 PM 45.0 °F 41.8 °F 39.9 °F 82% 30.08 in 4.0 mi NNW 5.8 mph - 0.01 in   Haze
1:43 PM 45.0 °F 41.8 °F 39.9 °F 82% 30.07 in 10.0 mi NNE 5.8 mph - 0.01 in   Overcast
1:52 PM 46.0 °F 43.1 °F 39.9 °F 79% 30.11 in 7.0 mi North 5.8 mph - 0.01 in   Overcast
2:00 PM 46.0 °F 41.9 °F 41.0 °F 83% 30.06 in 2.5 mi North 8.1 mph - N/A   Haze
2:19 PM 46.0 °F 41.9 °F 42.1 °F 86% 30.06 in 2.5 mi North 8.1 mph - N/A   Overcast
2:34 PM 46.0 °F 42.5 °F 41.0 °F 83% 30.05 in 5.0 mi North 6.9 mph - N/A   Haze
2:43 PM 46.0 °F 41.4 °F 41.0 °F 83% 30.06 in 8.0 mi North 9.2 mph - N/A   Overcast
2:48 PM 46.4 °F 42.9 °F 41.0 °F 81% 30.06 in 9.0 mi NNE 6.9 mph - N/A   Overcast
2:52 PM 46.9 °F - 41.0 °F 80% 30.09 in 10.0 mi NNE 5.8 mph - N/A   Overcast
3:04 PM 46.9 °F - 41.0 °F 80% 30.05 in 7.0 mi NNE 8.1 mph - N/A   Overcast
3:11 PM 46.9 °F - 41.0 °F 80% 30.05 in 9.0 mi North 8.1 mph - N/A   Overcast
3:52 PM 46.9 °F - 39.9 °F 77% 30.09 in 10.0 mi NNE 5.8 mph - N/A   Overcast
4:30 PM 46.0 °F 42.5 °F 41.0 °F 83% 30.07 in 2.5 mi North 6.9 mph - N/A   Haze
4:41 PM 46.0 °F 43.1 °F 42.1 °F 86% 30.07 in 1.8 mi North 5.8 mph - N/A   Overcast
4:52 PM 46.0 °F 43.1 °F 42.1 °F 86% 30.10 in 3.0 mi NNW 5.8 mph - N/A   Overcast
5:01 PM 46.9 °F - 42.1 °F 83% 30.07 in 8.0 mi NNW 6.9 mph - N/A   Overcast
5:15 PM 46.0 °F 41.9 °F 41.0 °F 83% 30.07 in 6.0 mi North 8.1 mph - N/A   Haze
5:32 PM 46.0 °F 41.9 °F 41.0 °F 83% 30.07 in 5.0 mi North 8.1 mph - N/A   Haze
5:39 PM 46.0 °F 41.9 °F 41.0 °F 83% 30.07 in 7.0 mi North 8.1 mph - N/A   Overcast
5:43 PM 46.9 °F - 41.0 °F 80% 30.07 in 8.0 mi North 6.9 mph - N/A   Overcast
5:52 PM 46.9 °F - 41.0 °F 80% 30.11 in 9.0 mi North 8.1 mph - N/A   Overcast
6:01 PM 46.0 °F 43.1 °F 41.0 °F 83% 30.08 in 7.0 mi North 5.8 mph - N/A   Overcast
6:24 PM 46.0 °F 43.1 °F 41.0 °F 83% 30.09 in 4.0 mi North 5.8 mph - N/A   Haze
6:31 PM 46.0 °F 43.1 °F 41.0 °F 83% 30.09 in 5.0 mi NNW 5.8 mph - N/A   Haze
6:49 PM 46.4 °F 42.9 °F 41.0 °F 81% 30.11 in 7.0 mi NNW 6.9 mph - N/A   Overcast
6:52 PM 46.0 °F 41.9 °F 41.0 °F 83% 30.14 in 6.0 mi NNW 8.1 mph - N/A   Haze
7:06 PM 45.0 °F 41.2 °F 39.9 °F 82% 30.11 in 10.0 mi NNW 6.9 mph - N/A   Overcast
7:52 PM 45.0 °F 42.6 °F 39.9 °F 82% 30.16 in 10.0 mi NNW 4.6 mph - N/A   Overcast
8:52 PM 43.0 °F - 37.9 °F 82% 30.18 in 10.0 mi Calm Calm - N/A   Mostly Cloudy
9:24 PM 43.0 °F - 37.9 °F 82% 30.14 in 10.0 mi Calm Calm - N/A   Overcast
9:52 PM 39.0 °F 36.8 °F 35.1 °F 86% 30.19 in 10.0 mi WSW 3.5 mph - N/A   Partly Cloudy
10:52 PM 39.0 °F 36.8 °F 35.1 °F 86% 30.22 in 10.0 mi NNW 3.5 mph - N/A   Clear
11:52 PM 36.0 °F 33.3 °F 33.1 °F 89% 30.24 in 10.0 mi West 3.5 mph - N/A   Scattered Clouds